Aviation Digital Data Service (ADDS)

Output produced by METARs form (1142 UTC 23 February 2017)
found at http://aviationweather.gov/adds/metars/
 
KGSP 231132Z 2312/2412 01004KT P6SM SCT070 
     FM231700 09004KT P6SM SCT050 
     FM240800 VRB02KT 3SM BR BKN020 
     FM240900 VRB02KT 1 1/2SM BR BKN010